Terminal Aerodrome Forecast
Issued by NWS

Home | Current Version | Previous Version | Text Only | Print | Product List | Glossary On
Versions: 1 2 3 4 5 6 7 8 9 10 11 12
156
FTUS46 KHNX 222325
TAFVIS
TAF
KVIS 222325Z 2300/2324 20005KT P6SM SCT050
     FM230600 00000KT 4SM BR BKN050
     FM231200 31002KT 2SM BR BKN015
     FM232000 29002KT 5SM HZ FEW060=

USA.gov is the U.S. government's official web portal to all federal, state and local government web resources and services.